Time;durP1;ratioP1;P1;durP2;ratioP2;P2;SDS_P1;SDS_P2;PMS_P1;PMS_P2;Temp;Humidity;BMP_temperature;BMP_pressure;BME280_temperature;BME280_humidity;BME280_pressure;Samples;Min_cycle;Max_cycle;Signal;HPM_P1;HPM_P2
2021/04/30 00:02:14;;;;;;;13.65;7.50;;;;;;;13.09;56.70;99964.95;1680316;85;21137;-68
2021/04/30 00:04:41;;;;;;;12.93;7.62;;;;;;;13.09;56.79;99964.95;1704806;84;21252;-68
2021/04/30 00:07:09;;;;;;;11.95;7.80;;;;;;;13.08;56.83;99964.63;1681231;84;21419;-68
2021/04/30 00:09:36;;;;;;;12.33;7.17;;;;;;;13.08;56.88;99961.05;1675558;85;21080;-68
2021/04/30 00:12:05;;;;;;;13.08;7.42;;;;;;;13.07;56.93;99960.20;1675706;85;21323;-66
2021/04/30 00:14:34;;;;;;;9.18;6.92;;;;;;;13.08;56.95;99965.17;1675717;85;21109;-67
2021/04/30 00:17:01;;;;;;;10.28;7.12;;;;;;;13.08;57.01;99961.05;1675751;85;21363;-66
2021/04/30 00:19:29;;;;;;;10.82;7.00;;;;;;;13.08;57.07;99961.05;1675697;85;21175;-68
2021/04/30 00:21:57;;;;;;;10.88;7.20;;;;;;;13.08;57.15;99962.42;1675749;85;21318;-67
2021/04/30 00:24:24;;;;;;;9.30;6.67;;;;;;;13.09;57.18;99969.61;1675698;85;21089;-68
2021/04/30 00:26:52;;;;;;;10.25;6.58;;;;;;;13.09;57.22;99966.85;1675951;85;21084;-67
2021/04/30 00:29:19;;;;;;;8.05;6.12;;;;;;;13.07;57.27;99964.33;1675867;85;21057;-68
2021/04/30 00:31:48;;;;;;;11.25;6.97;;;;;;;13.07;57.32;99968.98;1685630;84;21076;-67
2021/04/30 00:34:16;;;;;;;7.83;6.15;;;;;;;13.06;57.37;99960.42;1704956;84;21369;-65
2021/04/30 00:36:44;;;;;;;13.40;6.85;;;;;;;13.08;57.42;99955.01;1698653;84;21083;-66
2021/04/30 00:39:11;;;;;;;9.30;6.55;;;;;;;13.08;57.41;99956.92;1689973;85;21082;-65
2021/04/30 00:41:41;;;;;;;8.43;6.53;;;;;;;13.10;57.43;99954.78;1689999;83;21121;-68
2021/04/30 00:44:09;;;;;;;11.95;6.40;;;;;;;13.10;57.44;99956.16;1690149;84;21463;-68
2021/04/30 00:46:37;;;;;;;11.70;7.08;;;;;;;13.10;57.50;99953.41;1690152;85;21204;-68
2021/04/30 00:49:05;;;;;;;8.93;6.47;;;;;;;13.11;57.53;99953.72;1690181;85;21077;-67
2021/04/30 00:51:33;;;;;;;8.93;6.35;;;;;;;13.10;57.58;99955.63;1690105;84;21347;-67
2021/04/30 00:54:00;;;;;;;9.85;6.30;;;;;;;13.11;57.62;99955.09;1690065;85;21066;-65
2021/04/30 00:56:28;;;;;;;10.68;6.08;;;;;;;13.10;57.67;99951.50;1690115;85;21193;-66
2021/04/30 00:58:55;;;;;;;10.82;6.50;;;;;;;13.10;57.71;99948.75;1690079;84;21855;-66
2021/04/30 01:01:23;;;;;;;8.10;5.92;;;;;;;13.10;57.74;99952.03;1668869;85;21117;-67
2021/04/30 01:03:52;;;;;;;9.95;6.20;;;;;;;13.10;57.79;99947.37;1669146;86;21196;-66
2021/04/30 01:06:19;;;;;;;9.50;6.37;;;;;;;13.11;57.81;99947.68;1658113;85;21337;-66
2021/04/30 01:08:48;;;;;;;9.88;6.50;;;;;;;13.10;57.83;99946.00;1666466;86;21151;-66
2021/04/30 01:11:16;;;;;;;8.38;6.30;;;;;;;13.12;57.87;99946.61;1621047;87;21331;-68
2021/04/30 01:13:43;;;;;;;9.08;6.62;;;;;;;13.10;57.90;99935.00;1674171;84;21250;-68
2021/04/30 01:16:11;;;;;;;9.63;6.03;;;;;;;13.10;57.91;99936.38;1697328;84;21331;-66
2021/04/30 01:18:45;;;;;;;10.68;6.55;;;;;;;13.10;57.95;99938.28;1688219;84;21297;-67
2021/04/30 01:21:13;;;;;;;8.95;6.17;;;;;;;13.10;57.99;99931.41;1673346;85;21369;-68
2021/04/30 01:23:52;;;;;;;9.15;6.00;;;;;;;13.09;58.01;99928.34;1673373;84;21077;-66
2021/04/30 01:26:19;;;;;;;9.05;6.47;;;;;;;13.10;58.04;99930.03;1673317;85;21097;-66
2021/04/30 01:28:47;;;;;;;8.80;6.60;;;;;;;13.09;58.07;99925.59;1673385;85;21093;-65
2021/04/30 01:31:14;;;;;;;9.38;6.28;;;;;;;13.09;58.11;99926.44;1673233;84;21393;-67
2021/04/30 01:33:42;;;;;;;8.68;6.67;;;;;;;13.09;58.13;99927.81;1673393;85;21339;-66
2021/04/30 01:36:10;;;;;;;10.08;6.25;;;;;;;13.09;58.15;99927.81;1673154;84;21062;-65
2021/04/30 01:38:37;;;;;;;8.68;6.78;;;;;;;13.08;58.18;99928.88;1666185;85;21371;-66
2021/04/30 01:41:04;;;;;;;8.28;5.78;;;;;;;13.08;58.21;99920.62;1666206;84;21263;-68
2021/04/30 01:43:32;;;;;;;10.80;6.37;;;;;;;13.08;58.20;99919.25;1666217;84;21118;-66
2021/04/30 01:46:04;;;;;;;9.15;6.50;;;;;;;13.08;58.22;99919.25;1666305;84;21117;-68
2021/04/30 01:48:31;;;;;;;10.43;6.30;;;;;;;13.08;58.25;99912.91;1666272;85;21092;-68
2021/04/30 01:51:00;;;;;;;9.00;5.97;;;;;;;13.06;58.29;99909.55;1644521;87;21390;-65
2021/04/30 01:53:33;;;;;;;8.23;6.03;;;;;;;13.05;58.34;99910.61;1666394;84;21241;-65
2021/04/30 01:56:01;;;;;;;8.43;6.20;;;;;;;13.04;58.39;99910.30;1644426;86;21269;-65
2021/04/30 01:58:29;;;;;;;9.15;6.25;;;;;;;13.01;58.46;99902.81;1666125;85;21353;-67
2021/04/30 02:00:56;;;;;;;9.88;6.40;;;;;;;12.99;58.46;99897.20;1666180;85;21115;-67
2021/04/30 02:03:25;;;;;;;8.53;5.85;;;;;;;13.00;58.52;99902.50;1666141;86;21105;-65
2021/04/30 02:05:52;;;;;;;9.73;6.30;;;;;;;12.98;58.56;99899.11;1661335;84;21832;-67
2021/04/30 02:08:21;;;;;;;8.98;6.00;;;;;;;12.97;58.58;99900.17;1652038;86;21249;-65
2021/04/30 02:10:51;;;;;;;9.18;5.65;;;;;;;12.97;58.61;99904.83;1628735;86;22183;-67
2021/04/30 02:13:19;;;;;;;8.80;6.00;;;;;;;12.96;58.64;99901.77;1652361;85;21334;-67
2021/04/30 02:15:49;;;;;;;9.35;6.05;;;;;;;12.94;58.73;99902.53;1652305;85;21245;-66
2021/04/30 02:18:17;;;;;;;11.08;6.28;;;;;;;12.92;58.80;99898.63;1652304;86;21328;-67
2021/04/30 02:20:44;;;;;;;9.03;6.25;;;;;;;12.91;58.85;99890.61;1652266;85;21295;-67
2021/04/30 02:23:12;;;;;;;9.63;6.30;;;;;;;12.89;58.86;99888.09;1652033;85;21174;-67
2021/04/30 02:25:40;;;;;;;7.25;6.12;;;;;;;12.89;58.93;99890.84;1652143;85;21053;-66
2021/04/30 02:28:08;;;;;;;8.80;5.97;;;;;;;12.86;59.00;99880.29;1651995;86;21314;-68
2021/04/30 02:30:38;;;;;;;8.48;6.08;;;;;;;12.84;59.03;99871.95;1652200;86;21084;-67
2021/04/30 02:33:06;;;;;;;8.23;5.85;;;;;;;12.81;59.12;99880.13;1652114;86;21101;-68
2021/04/30 02:35:40;;;;;;;9.00;5.28;;;;;;;12.81;59.17;99884.25;1651999;85;21356;-65
2021/04/30 02:38:08;;;;;;;10.13;6.08;;;;;;;12.82;59.21;99884.55;1671558;84;21296;-67
2021/04/30 02:40:37;;;;;;;9.95;5.80;;;;;;;12.82;59.29;99888.68;1697996;82;21148;-66
2021/04/30 02:43:08;;;;;;;10.05;5.75;;;;;;;12.82;59.42;99891.42;1707459;84;21314;-67
2021/04/30 02:45:36;;;;;;;11.40;6.55;;;;;;;12.81;59.46;99894.41;1707538;84;21219;-67
2021/04/30 02:48:11;;;;;;;12.07;6.40;;;;;;;12.82;59.48;99899.67;1707585;84;21124;-67
2021/04/30 02:50:34;;;;;;;8.50;6.65;;;;;;;12.82;59.51;99902.96;1707137;84;21058;-67
2021/04/30 02:53:01;;;;;;;10.35;5.87;;;;;;;12.83;59.45;99896.39;1707693;84;21065;-67
2021/04/30 02:55:29;;;;;;;9.43;6.20;;;;;;;12.83;59.47;99888.98;1707522;84;21116;-68
2021/04/30 02:57:58;;;;;;;9.83;6.33;;;;;;;12.82;59.45;99891.42;1707607;84;21128;-67
2021/04/30 03:00:26;;;;;;;9.35;6.20;;;;;;;12.83;59.46;99886.77;1707454;84;21088;-66
2021/04/30 03:02:54;;;;;;;7.40;5.70;;;;;;;12.84;59.45;99895.33;1707668;84;21118;-66
2021/04/30 03:05:21;;;;;;;8.03;5.78;;;;;;;12.83;59.44;99897.77;1705718;84;21080;-66
2021/04/30 03:07:49;;;;;;;8.88;6.30;;;;;;;12.80;59.45;99900.44;1680881;85;21113;-68
2021/04/30 03:10:17;;;;;;;8.25;6.10;;;;;;;12.81;59.49;99897.16;1680894;84;21081;-67
2021/04/30 03:12:46;;;;;;;9.38;6.25;;;;;;;12.81;59.47;99898.53;1680760;84;21283;-67
2021/04/30 03:15:15;;;;;;;8.48;5.53;;;;;;;12.82;59.44;99883.72;1680891;85;21388;-67
2021/04/30 03:17:43;;;;;;;9.00;5.47;;;;;;;12.82;59.45;99886.47;1680914;84;21109;-67
2021/04/30 03:20:11;;;;;;;7.83;5.97;;;;;;;12.81;59.46;99893.03;1680842;85;21296;-69
2021/04/30 03:22:39;;;;;;;7.72;5.65;;;;;;;12.80;59.46;99893.56;1690415;84;21077;-67
2021/04/30 03:25:08;;;;;;;11.03;6.22;;;;;;;12.80;59.49;99900.44;1707436;84;21085;-67
2021/04/30 03:27:35;;;;;;;10.25;5.35;;;;;;;12.79;59.45;99901.50;1707345;84;21785;-67
2021/04/30 03:30:05;;;;;;;7.87;5.60;;;;;;;12.81;59.43;99913.12;1707536;84;21065;-66
2021/04/30 03:32:32;;;;;;;8.03;5.50;;;;;;;12.85;59.41;99911.59;1707439;84;21710;-67
2021/04/30 03:35:00;;;;;;;9.55;5.37;;;;;;;12.88;59.41;99904.81;1707709;84;21069;-67
2021/04/30 03:37:27;;;;;;;11.08;5.40;;;;;;;12.90;59.35;99905.42;1702989;84;21109;-66
2021/04/30 03:39:54;;;;;;;8.50;5.20;;;;;;;12.91;59.30;99894.20;1690213;83;21353;-66
2021/04/30 03:42:23;;;;;;;10.25;5.95;;;;;;;12.93;59.17;99905.81;1690093;85;21082;-67
2021/04/30 03:44:50;;;;;;;11.28;5.37;;;;;;;12.95;59.09;99900.09;1689918;84;21082;-66
2021/04/30 03:47:17;;;;;;;10.58;5.65;;;;;;;12.96;59.00;99894.36;1668810;85;21354;-68
2021/04/30 03:49:45;;;;;;;8.90;5.40;;;;;;;12.97;58.96;99895.20;1668917;86;21357;-66
2021/04/30 03:52:13;;;;;;;7.80;5.17;;;;;;;12.99;58.88;99897.20;1668841;84;21272;-67
2021/04/30 03:54:40;;;;;;;8.60;5.53;;;;;;;13.00;58.83;99894.25;1668873;84;21256;-67
2021/04/30 03:57:07;;;;;;;10.00;5.62;;;;;;;13.03;58.77;99894.87;1668662;86;21134;-68
2021/04/30 03:59:35;;;;;;;9.68;5.58;;;;;;;13.05;58.75;99896.33;1673026;85;21324;-67
2021/04/30 04:02:02;;;;;;;6.78;5.20;;;;;;;13.07;58.63;99893.34;1689974;85;21275;-68
2021/04/30 04:04:30;;;;;;;9.68;4.97;;;;;;;13.09;58.56;99891.21;1668774;84;21069;-66
2021/04/30 04:06:58;;;;;;;9.68;5.50;;;;;;;13.10;58.38;99892.36;1651917;86;21277;-67
2021/04/30 04:09:26;;;;;;;10.53;5.10;;;;;;;13.12;58.33;99883.88;1655685;86;21137;-68
2021/04/30 04:11:53;;;;;;;8.28;5.10;;;;;;;13.13;58.25;99882.28;1669013;84;21117;-68
2021/04/30 04:14:21;;;;;;;9.58;5.70;;;;;;;13.15;58.13;99882.05;1673054;85;21324;-66
2021/04/30 04:16:48;;;;;;;11.88;5.58;;;;;;;13.17;58.10;99885.45;1673089;85;21305;-68
2021/04/30 04:19:17;;;;;;;6.58;4.80;;;;;;;13.19;58.08;99888.81;1673036;84;21306;-68
2021/04/30 04:21:45;;;;;;;8.75;4.92;;;;;;;13.20;58.01;99885.84;1697019;84;21208;-69
2021/04/30 04:24:12;;;;;;;8.38;4.95;;;;;;;13.23;57.86;99876.29;1697033;84;21192;-70
2021/04/30 04:26:40;;;;;;;8.23;4.30;;;;;;;13.25;57.71;99884.63;1697243;84;21101;-67
2021/04/30 04:29:08;;;;;;;8.73;5.10;;;;;;;13.28;57.56;99887.45;1697138;84;21238;-66
2021/04/30 04:31:36;;;;;;;10.05;5.30;;;;;;;13.29;57.49;99882.25;1697147;84;21308;-67
2021/04/30 04:34:04;;;;;;;10.58;5.92;;;;;;;13.32;57.39;99883.17;1697374;84;21200;-68
2021/04/30 04:36:32;;;;;;;7.62;5.20;;;;;;;13.33;57.32;99873.31;1697467;84;21061;-66
2021/04/30 04:39:00;;;;;;;10.10;5.37;;;;;;;13.37;57.19;99869.56;1706338;84;21078;-68
2021/04/30 04:41:27;;;;;;;12.37;5.53;;;;;;;13.40;57.08;99862.77;1709457;82;21466;-67
2021/04/30 04:43:54;;;;;;;8.23;4.83;;;;;;;13.44;56.99;99869.50;1709658;84;21077;-66
2021/04/30 04:46:22;;;;;;;11.12;5.12;;;;;;;13.46;56.86;99866.81;1709565;84;21116;-68
2021/04/30 04:48:49;;;;;;;9.15;5.30;;;;;;;13.50;56.78;99864.45;1709262;84;21101;-68
2021/04/30 04:51:17;;;;;;;9.30;6.05;;;;;;;13.53;56.63;99863.45;1709341;84;21072;-68
2021/04/30 04:53:44;;;;;;;11.48;6.15;;;;;;;13.55;56.61;99862.69;1709671;84;21081;-65
2021/04/30 04:56:13;;;;;;;7.62;5.03;;;;;;;13.61;56.50;99874.69;1708567;84;21887;-67
2021/04/30 04:58:41;;;;;;;6.92;5.37;;;;;;;13.68;56.29;99870.51;1709516;84;21049;-68
2021/04/30 05:01:08;;;;;;;8.48;4.78;;;;;;;13.71;56.16;99863.16;1709639;84;21360;-66
2021/04/30 05:03:35;;;;;;;9.75;4.65;;;;;;;13.74;55.97;99857.19;1709860;84;21076;-66
2021/04/30 05:06:04;;;;;;;9.05;5.28;;;;;;;13.77;55.88;99871.34;1670803;85;21327;-67
2021/04/30 05:08:32;;;;;;;8.40;4.87;;;;;;;13.83;55.81;99866.81;1626982;87;21063;-65
2021/04/30 05:10:59;;;;;;;9.40;5.33;;;;;;;13.88;55.68;99857.32;1674362;85;21053;-67
2021/04/30 05:13:26;;;;;;;8.60;4.90;;;;;;;13.92;55.55;99855.78;1673305;85;21304;-67
2021/04/30 05:15:56;;;;;;;8.80;4.80;;;;;;;13.97;55.44;99857.30;1673429;85;21118;-67
2021/04/30 05:18:24;;;;;;;8.13;4.40;;;;;;;14.01;55.35;99861.80;1673504;85;21085;-68
2021/04/30 05:20:53;;;;;;;7.55;4.60;;;;;;;14.07;55.25;99864.47;1673460;85;21127;-68
2021/04/30 05:23:21;;;;;;;6.90;4.05;;;;;;;14.14;55.17;99871.26;1673635;85;21413;-68
2021/04/30 05:25:52;;;;;;;8.98;4.72;;;;;;;14.19;55.10;99862.59;1673519;85;21061;-67
2021/04/30 05:28:19;;;;;;;6.55;4.33;;;;;;;14.25;55.01;99862.19;1673562;85;21184;-66
2021/04/30 05:30:47;;;;;;;8.10;4.62;;;;;;;14.29;54.88;99862.02;1683957;84;21459;-68
2021/04/30 05:33:14;;;;;;;9.13;4.17;;;;;;;14.33;54.80;99863.80;1656834;85;21309;-67
2021/04/30 05:35:42;;;;;;;8.25;4.22;;;;;;;14.36;54.78;99854.53;1700234;84;21029;-67
2021/04/30 05:38:09;;;;;;;7.55;4.22;;;;;;;14.41;54.72;99853.81;1680553;85;21089;-67
2021/04/30 05:40:37;;;;;;;7.50;4.20;;;;;;;14.44;54.66;99857.51;1680349;84;21379;-67
2021/04/30 05:43:04;;;;;;;8.58;4.45;;;;;;;14.46;54.66;99852.60;1680367;85;21335;-67
2021/04/30 05:45:33;;;;;;;5.35;3.90;;;;;;;14.49;54.58;99852.97;1704942;84;21100;-67
2021/04/30 05:48:01;;;;;;;6.20;3.62;;;;;;;14.53;54.53;99856.09;1704756;84;21944;-69
2021/04/30 05:50:28;;;;;;;7.80;4.10;;;;;;;14.53;54.52;99845.91;1704649;84;21381;-67
2021/04/30 05:52:55;;;;;;;7.92;4.12;;;;;;;14.56;54.60;99858.38;1704702;84;21093;-67
2021/04/30 05:55:23;;;;;;;5.28;3.60;;;;;;;14.58;54.53;99849.33;1704626;84;21081;-67
2021/04/30 05:57:50;;;;;;;5.78;3.92;;;;;;;14.63;54.51;99856.89;1704676;84;21076;-67
2021/04/30 06:00:18;;;;;;;9.95;3.95;;;;;;;14.65;54.37;99853.35;1704522;84;21303;-70
2021/04/30 06:02:46;;;;;;;6.67;4.25;;;;;;;14.68;54.37;99841.84;1704806;84;21323;-67
2021/04/30 06:05:14;;;;;;;6.55;4.37;;;;;;;14.72;54.36;99843.89;1704147;84;21325;-68
2021/04/30 06:07:41;;;;;;;9.83;4.83;;;;;;;14.78;54.28;99854.51;1675685;85;21066;-67
2021/04/30 06:10:10;;;;;;;5.97;4.03;;;;;;;14.81;54.27;99845.22;1675583;85;21077;-67
2021/04/30 06:12:37;;;;;;;9.03;4.15;;;;;;;14.86;54.23;99837.06;1675710;84;21064;-68
2021/04/30 06:15:06;;;;;;;7.65;4.28;;;;;;;14.93;54.18;99846.59;1675977;84;21188;-68
2021/04/30 06:17:33;;;;;;;6.75;4.37;;;;;;;15.03;54.15;99851.55;1676081;84;21305;-69
2021/04/30 06:20:01;;;;;;;7.60;4.75;;;;;;;15.11;54.16;99851.19;1676156;85;21870;-69
2021/04/30 06:22:28;;;;;;;9.45;4.87;;;;;;;15.19;54.11;99846.14;1676223;84;21069;-69
2021/04/30 06:24:56;;;;;;;8.45;4.08;;;;;;;15.28;54.06;99841.63;1676076;85;21351;-69
2021/04/30 06:27:24;;;;;;;8.58;5.10;;;;;;;15.39;53.87;99849.89;1675945;84;21369;-68
2021/04/30 06:29:51;;;;;;;8.45;4.42;;;;;;;15.46;53.69;99838.71;1674888;84;21358;-68
2021/04/30 06:32:19;;;;;;;6.90;4.15;;;;;;;15.51;53.59;99842.42;1675201;85;21140;-68
2021/04/30 06:34:46;;;;;;;8.55;4.30;;;;;;;15.56;53.47;99838.93;1676567;85;21835;-66
2021/04/30 06:37:13;;;;;;;7.37;4.35;;;;;;;15.61;53.37;99832.20;1675166;84;21280;-68
2021/04/30 06:39:41;;;;;;;6.17;4.03;;;;;;;15.67;53.33;99824.86;1675255;85;21205;-68
2021/04/30 06:42:09;;;;;;;8.35;4.65;;;;;;;15.70;53.35;99827.13;1675561;84;21176;-68
2021/04/30 06:44:37;;;;;;;8.58;4.80;;;;;;;15.74;53.30;99821.41;1675645;84;21466;-70
2021/04/30 06:47:05;;;;;;;9.00;4.28;;;;;;;15.82;53.29;99824.62;1675444;85;21221;-67
2021/04/30 06:49:33;;;;;;;8.20;4.40;;;;;;;15.90;53.21;99830.29;1675514;84;21087;-69
2021/04/30 06:52:00;;;;;;;9.48;4.30;;;;;;;16.00;53.17;99828.27;1675489;85;21099;-70
2021/04/30 06:54:28;;;;;;;7.83;4.28;;;;;;;16.10;53.05;99831.22;1675547;85;21072;-67
2021/04/30 06:56:55;;;;;;;7.53;4.65;;;;;;;16.18;52.93;99828.89;1675705;84;21053;-66
2021/04/30 06:59:23;;;;;;;7.42;4.50;;;;;;;16.25;52.85;99833.43;1675973;84;21817;-67
2021/04/30 07:01:50;;;;;;;9.35;4.70;;;;;;;16.30;52.70;99828.02;1675539;84;21245;-67
2021/04/30 07:04:19;;;;;;;8.55;4.42;;;;;;;16.34;52.67;99829.20;1675639;85;21124;-68
2021/04/30 07:06:46;;;;;;;9.10;4.12;;;;;;;16.39;52.62;99826.52;1672758;85;21332;-68
2021/04/30 07:09:14;;;;;;;7.53;4.12;;;;;;;16.44;52.47;99828.83;1673742;85;21057;-67
2021/04/30 07:11:41;;;;;;;6.72;4.30;;;;;;;16.54;52.33;99836.47;1675491;84;21236;-68
2021/04/30 07:14:09;;;;;;;9.33;4.55;;;;;;;16.66;52.15;99833.11;1674790;85;21317;-67
2021/04/30 07:16:36;;;;;;;8.03;4.25;;;;;;;16.78;51.79;99836.62;1669808;85;21312;-68
2021/04/30 07:19:04;;;;;;;8.30;5.10;;;;;;;16.88;51.63;99827.64;1649141;85;21806;-67
2021/04/30 07:21:31;;;;;;;9.80;4.65;;;;;;;16.98;51.52;99819.53;1675526;84;21327;-67
2021/04/30 07:23:59;;;;;;;7.12;4.70;;;;;;;17.10;51.31;99816.11;1675658;85;21073;-67
2021/04/30 07:26:26;;;;;;;8.40;5.03;;;;;;;17.20;51.15;99823.72;1675508;85;21132;-67
2021/04/30 07:28:55;;;;;;;7.72;4.72;;;;;;;17.31;51.03;99821.39;1675493;85;21284;-69
2021/04/30 07:31:24;;;;;;;8.60;4.75;;;;;;;17.42;50.89;99823.20;1675548;85;21303;-66
2021/04/30 07:33:51;;;;;;;11.85;4.80;;;;;;;17.50;50.58;99828.00;1673963;85;21275;-68
2021/04/30 07:36:20;;;;;;;8.53;4.83;;;;;;;17.52;50.42;99827.20;1679952;85;21156;-67
2021/04/30 07:38:48;;;;;;;9.13;4.80;;;;;;;17.50;50.28;99823.84;1680227;84;21092;-68
2021/04/30 07:41:15;;;;;;;6.42;4.70;;;;;;;17.46;50.26;99817.98;1680417;85;21286;-68
2021/04/30 07:43:42;;;;;;;7.62;4.95;;;;;;;17.39;50.41;99822.33;1682574;84;21274;-68
2021/04/30 07:46:10;;;;;;;8.68;5.03;;;;;;;17.38;50.50;99814.28;1648344;87;21312;-69
2021/04/30 07:48:38;;;;;;;12.20;4.80;;;;;;;17.41;50.50;99821.52;1651383;86;21325;-68
2021/04/30 07:51:06;;;;;;;10.10;4.87;;;;;;;17.46;50.33;99818.53;1678445;84;21113;-69
2021/04/30 07:53:35;;;;;;;7.67;5.30;;;;;;;17.48;50.31;99812.19;1642687;86;21108;-67
2021/04/30 07:56:03;;;;;;;9.40;5.20;;;;;;;17.52;50.37;99806.42;1623894;87;21842;-65
2021/04/30 07:58:31;;;;;;;10.15;5.22;;;;;;;17.57;50.23;99803.75;1674563;84;21786;-63
2021/04/30 08:00:59;;;;;;;9.53;5.25;;;;;;;17.57;50.20;99800.43;1674584;84;21250;-65
2021/04/30 08:03:26;;;;;;;11.12;5.42;;;;;;;17.60;50.22;99799.08;1674749;84;21336;-65
2021/04/30 08:05:54;;;;;;;11.95;5.42;;;;;;;17.63;50.26;99801.33;1674602;85;21303;-64
2021/04/30 08:08:21;;;;;;;7.53;5.17;;;;;;;17.68;50.16;99801.42;1673290;85;21332;-70
2021/04/30 08:10:49;;;;;;;7.95;5.37;;;;;;;17.66;50.17;99797.52;1659945;85;21085;-68
2021/04/30 08:13:18;;;;;;;8.78;4.70;;;;;;;17.63;50.28;99798.56;1675153;85;21094;-67
2021/04/30 08:15:45;;;;;;;9.83;4.67;;;;;;;17.65;50.39;99794.98;1674455;85;21073;-69
2021/04/30 08:18:13;;;;;;;10.25;5.12;;;;;;;17.72;50.27;99792.33;1684008;83;21350;-70
2021/04/30 08:20:40;;;;;;;10.45;5.03;;;;;;;17.81;50.18;99784.94;1681004;84;21359;-71
2021/04/30 08:23:08;;;;;;;11.15;4.75;;;;;;;17.91;50.12;99783.12;1657197;85;21117;-69
2021/04/30 08:25:36;;;;;;;12.23;5.25;;;;;;;18.06;49.88;99779.66;1649385;85;21101;-70
2021/04/30 08:28:04;;;;;;;9.10;5.15;;;;;;;18.22;49.56;99787.61;1641647;86;21109;-69
2021/04/30 08:30:32;;;;;;;8.30;4.53;;;;;;;18.33;49.31;99769.96;1653008;85;21361;-71
2021/04/30 08:33:00;;;;;;;9.10;5.10;;;;;;;18.45;49.14;99777.56;1649184;85;21201;-71
2021/04/30 08:35:27;;;;;;;8.38;4.97;;;;;;;18.48;49.02;99783.97;1649650;85;21084;-69
2021/04/30 08:37:57;;;;;;;10.03;5.08;;;;;;;18.53;48.97;99772.91;1650165;85;21816;-73
2021/04/30 08:40:24;;;;;;;9.63;4.92;;;;;;;18.64;48.75;99774.69;1623426;87;21140;-72
2021/04/30 08:42:52;;;;;;;8.10;4.72;;;;;;;18.76;48.57;99763.95;1677860;84;21777;-71
2021/04/30 08:45:19;;;;;;;9.70;4.70;;;;;;;18.88;48.29;99765.45;1674013;84;21034;-68
2021/04/30 08:47:47;;;;;;;7.90;4.97;;;;;;;19.01;48.03;99758.59;1677383;84;21877;-72
2021/04/30 08:50:14;;;;;;;8.25;4.55;;;;;;;19.12;47.62;99746.43;1677599;84;21756;-71
2021/04/30 08:52:42;;;;;;;9.20;4.85;;;;;;;19.22;47.42;99752.03;1654473;85;21353;-70
2021/04/30 08:55:14;;;;;;;9.93;4.90;;;;;;;19.33;47.19;99752.36;1624140;88;21331;-73
2021/04/30 08:57:41;;;;;;;9.08;4.85;;;;;;;19.46;46.92;99758.52;1664945;84;21383;-70
2021/04/30 09:00:11;;;;;;;9.00;4.62;;;;;;;19.58;46.21;99750.85;1657094;85;21345;-70
2021/04/30 09:02:38;;;;;;;16.52;4.53;;;;;;;19.68;46.16;99743.94;1679716;84;21365;-69
2021/04/30 09:05:12;;;;;;;10.80;6.35;;;;;;;19.78;45.93;99741.19;1678261;84;21726;-68
2021/04/30 09:07:42;;;;;;;8.55;4.47;;;;;;;19.92;45.71;99742.33;1682808;84;22184;-66
2021/04/30 09:10:13;;;;;;;13.40;5.22;;;;;;;20.03;45.21;99740.39;1678692;84;21184;-66
2021/04/30 09:12:41;;;;;;;5.83;4.08;;;;;;;20.06;45.09;99733.45;1683872;84;21611;-65
2021/04/30 09:15:19;;;;;;;21.90;5.37;;;;;;;20.17;44.79;99735.98;1668931;84;21129;-66
2021/04/30 09:17:47;;;;;;;6.78;4.10;;;;;;;20.29;44.23;99735.72;1650255;86;21285;-70
2021/04/30 09:20:14;;;;;;;6.37;4.10;;;;;;;20.40;43.69;99737.42;1677702;85;21340;-69
2021/04/30 09:22:43;;;;;;;12.55;4.67;;;;;;;20.49;43.56;99734.35;1664879;84;21093;-69
2021/04/30 09:25:15;;;;;;;7.80;5.42;;;;;;;20.61;43.25;99721.53;1678616;85;21061;-67
2021/04/30 09:27:47;;;;;;;7.70;3.90;;;;;;;20.73;43.00;99740.73;1654851;85;21914;-69
2021/04/30 09:30:30;;;;;;;7.15;4.40;;;;;;;20.87;42.53;99725.14;1685991;84;21489;-68
2021/04/30 09:33:10;;;;;;;10.20;4.17;;;;;;;21.00;42.28;99725.94;1679057;84;21356;-68
2021/04/30 09:35:50;;;;;;;6.35;4.35;;;;;;;21.10;41.72;99730.09;1661803;84;21379;-68
2021/04/30 09:38:34;;;;;;;7.28;4.03;;;;;;;21.20;41.41;99725.88;1680731;84;21275;-68
2021/04/30 09:41:07;;;;;;;6.97;4.08;;;;;;;21.30;41.01;99723.64;1675800;85;21167;-69
2021/04/30 09:43:52;;;;;;;6.67;3.70;;;;;;;21.34;40.96;99721.95;1675755;85;21131;-65
2021/04/30 09:46:34;;;;;;;6.08;3.70;;;;;;;21.42;40.91;99710.20;1637705;85;21318;-68
2021/04/30 09:49:13;;;;;;;11.10;4.08;;;;;;;21.51;40.57;99714.66;1639448;87;21071;-69
2021/04/30 09:51:51;;;;;;;10.05;4.47;;;;;;;21.62;40.35;99716.27;1669300;84;21077;-68
2021/04/30 09:54:29;;;;;;;9.18;4.20;;;;;;;21.64;40.28;99714.02;1674815;85;21086;-70
2021/04/30 09:57:24;;;;;;;10.43;3.85;;;;;;;21.65;40.16;99705.09;1623401;88;21088;-67
2021/04/30 10:00:00;;;;;;;7.22;4.05;;;;;;;21.65;40.21;99717.09;1648655;85;21076;-74
2021/04/30 10:02:29;;;;;;;11.40;4.05;;;;;;;21.64;40.12;99711.80;1631669;86;21108;-69
2021/04/30 10:05:22;;;;;;;8.65;3.55;;;;;;;21.67;40.04;99693.93;1675761;85;21106;-70
2021/04/30 10:07:52;;;;;;;5.62;4.05;;;;;;;21.71;39.79;99699.77;1669744;84;21061;-68
2021/04/30 10:10:22;;;;;;;6.78;3.70;;;;;;;21.71;39.93;99697.81;1678000;84;21080;-74
2021/04/30 10:12:58;;;;;;;5.55;3.45;;;;;;;21.74;39.85;99695.84;1680946;85;21558;-68
2021/04/30 10:15:25;;;;;;;6.12;3.75;;;;;;;21.67;40.01;99693.09;1679410;85;21085;-68
2021/04/30 10:17:56;;;;;;;6.47;3.45;;;;;;;21.66;40.18;99695.05;1680544;85;21052;-68
2021/04/30 10:20:24;;;;;;;7.62;3.87;;;;;;;21.74;40.08;99680.50;1688331;83;21092;-70
2021/04/30 10:22:55;;;;;;;7.87;3.92;;;;;;;21.83;39.97;99673.19;1680204;84;21079;-70
2021/04/30 10:25:24;;;;;;;5.30;3.50;;;;;;;21.94;39.76;99678.69;1629756;86;21118;-68
2021/04/30 10:27:53;;;;;;;6.00;3.75;;;;;;;22.03;39.50;99679.20;1673945;84;21820;-71
2021/04/30 10:30:43;;;;;;;5.67;3.67;;;;;;;22.07;39.40;99676.67;1680155;84;21331;-71
2021/04/30 10:33:32;;;;;;;7.87;4.90;;;;;;;22.12;39.35;99674.70;1688724;84;21112;-70
2021/04/30 10:36:29;;;;;;;13.18;8.33;;;;;;;22.19;39.24;99672.97;1674347;85;21294;-67
2021/04/30 10:38:59;;;;;;;13.98;8.70;;;;;;;22.25;39.26;99662.59;1662792;85;21456;-68
2021/04/30 10:41:38;;;;;;;16.40;8.03;;;;;;;22.34;39.25;99664.46;1675440;85;21398;-68
2021/04/30 10:44:28;;;;;;;9.73;4.80;;;;;;;22.40;39.02;99663.84;1675649;85;21162;-67
2021/04/30 10:47:11;;;;;;;42.05;8.63;;;;;;;22.46;38.95;99659.88;1674592;85;21365;-67
2021/04/30 10:49:40;;;;;;;8.60;4.20;;;;;;;22.60;38.72;99663.64;1651218;87;21095;-65
2021/04/30 10:52:21;;;;;;;6.80;3.98;;;;;;;22.70;38.55;99659.34;1679971;84;21299;-66
2021/04/30 10:55:04;;;;;;;6.35;3.98;;;;;;;22.77;38.52;99650.65;1691538;84;21073;-68
2021/04/30 10:57:55;;;;;;;8.88;4.03;;;;;;;22.89;38.39;99643.28;1676027;85;21132;-67
2021/04/30 11:00:29;;;;;;;53.15;5.85;;;;;;;23.03;38.15;99625.50;1677017;84;21034;-66
2021/04/30 11:03:20;;;;;;;11.95;4.10;;;;;;;23.17;37.82;99656.91;1674474;84;21476;-65
2021/04/30 11:06:01;;;;;;;13.78;4.10;;;;;;;23.22;37.82;99651.25;1667271;85;21093;-67
2021/04/30 11:08:55;;;;;;;7.58;4.00;;;;;;;23.22;37.69;99652.08;1675346;85;21342;-68
2021/04/30 11:11:33;;;;;;;6.70;4.25;;;;;;;23.18;37.87;99629.22;1673351;85;21087;-69
2021/04/30 11:14:22;;;;;;;6.30;3.50;;;;;;;23.26;37.84;99631.34;1644757;85;21037;-69
2021/04/30 11:16:50;;;;;;;14.63;4.78;;;;;;;23.38;37.63;99622.78;1665026;84;21335;-68
2021/04/30 11:19:18;;;;;;;15.60;5.10;;;;;;;23.52;37.45;99618.70;1676097;85;21085;-70
2021/04/30 11:21:53;;;;;;;11.97;4.55;;;;;;;23.60;37.34;99620.84;1675929;84;21362;-71
2021/04/30 11:24:35;;;;;;;7.53;4.00;;;;;;;23.62;37.12;99621.94;1675452;85;21402;-65
2021/04/30 11:27:21;;;;;;;7.78;4.20;;;;;;;23.60;37.25;99619.45;1676772;84;21104;-67
2021/04/30 11:29:50;;;;;;;4.62;3.60;;;;;;;23.64;37.40;99625.27;1682360;84;21072;-67
2021/04/30 11:32:27;;;;;;;20.50;5.97;;;;;;;23.80;37.23;99622.49;1691544;83;21053;-65
2021/04/30 11:34:59;;;;;;;;;;;;;;;23.87;37.06;99629.10;1678303;85;21105;-69
2021/04/30 11:37:27;;;;;;;7.17;4.00;;;;;;;23.82;37.05;99617.99;1675819;84;20191;-73
2021/04/30 11:39:58;;;;;;;13.43;4.83;;;;;;;23.70;37.16;99603.07;1678260;82;21212;-68
2021/04/30 11:42:30;;;;;;;7.28;4.37;;;;;;;23.58;37.23;99602.70;1675798;84;21419;-69
2021/04/30 11:44:58;;;;;;;13.05;3.90;;;;;;;23.51;37.31;99609.22;1677285;84;21821;-72